sensor_id;sensor_type;location;lat;lon;timestamp;temperature;humidity
66670;DHT22;53568;52.164;4.472;2023-01-30T00:00:55;9.41;82.45
66670;DHT22;53568;52.164;4.472;2023-01-30T00:03:21;9.41;82.39
66670;DHT22;53568;52.164;4.472;2023-01-30T00:05:47;9.33;82.55
66670;DHT22;53568;52.164;4.472;2023-01-30T00:08:13;9.40;82.46
66670;DHT22;53568;52.164;4.472;2023-01-30T00:10:38;9.43;82.18
66670;DHT22;53568;52.164;4.472;2023-01-30T00:13:04;9.38;82.28
66670;DHT22;53568;52.164;4.472;2023-01-30T00:15:30;9.41;82.19
66670;DHT22;53568;52.164;4.472;2023-01-30T00:17:55;9.40;82.26
66670;DHT22;53568;52.164;4.472;2023-01-30T00:20:21;9.44;82.15
66670;DHT22;53568;52.164;4.472;2023-01-30T00:22:46;9.47;81.93
66670;DHT22;53568;52.164;4.472;2023-01-30T00:25:12;9.41;81.82
66670;DHT22;53568;52.164;4.472;2023-01-30T00:27:37;9.41;81.97
66670;DHT22;53568;52.164;4.472;2023-01-30T00:30:03;9.38;81.95
66670;DHT22;53568;52.164;4.472;2023-01-30T00:32:32;9.37;81.96
66670;DHT22;53568;52.164;4.472;2023-01-30T00:34:57;9.50;81.64
66670;DHT22;53568;52.164;4.472;2023-01-30T00:37:23;9.44;81.70
66670;DHT22;53568;52.164;4.472;2023-01-30T00:39:49;9.38;81.86
66670;DHT22;53568;52.164;4.472;2023-01-30T00:42:14;9.46;81.73
66670;DHT22;53568;52.164;4.472;2023-01-30T00:44:59;9.48;81.65
66670;DHT22;53568;52.164;4.472;2023-01-30T00:47:43;9.38;81.79
66670;DHT22;53568;52.164;4.472;2023-01-30T00:50:09;9.46;81.56
66670;DHT22;53568;52.164;4.472;2023-01-30T00:52:34;9.34;81.66
66670;DHT22;53568;52.164;4.472;2023-01-30T00:55:00;9.46;81.43
66670;DHT22;53568;52.164;4.472;2023-01-30T00:57:25;9.44;81.20
66670;DHT22;53568;52.164;4.472;2023-01-30T00:59:51;9.37;81.22
66670;DHT22;53568;52.164;4.472;2023-01-30T01:02:17;9.44;81.05
66670;DHT22;53568;52.164;4.472;2023-01-30T01:04:42;9.44;80.75
66670;DHT22;53568;52.164;4.472;2023-01-30T01:07:13;9.40;80.68
66670;DHT22;53568;52.164;4.472;2023-01-30T01:09:40;9.38;80.29
66670;DHT22;53568;52.164;4.472;2023-01-30T01:12:06;9.43;80.00
66670;DHT22;53568;52.164;4.472;2023-01-30T01:14:32;9.41;79.98
66670;DHT22;53568;52.164;4.472;2023-01-30T01:16:58;9.41;79.96
66670;DHT22;53568;52.164;4.472;2023-01-30T01:19:24;9.37;79.92
66670;DHT22;53568;52.164;4.472;2023-01-30T01:21:49;9.28;80.02
66670;DHT22;53568;52.164;4.472;2023-01-30T01:24:15;9.27;80.01
66670;DHT22;53568;52.164;4.472;2023-01-30T01:26:41;9.27;80.02
66670;DHT22;53568;52.164;4.472;2023-01-30T01:29:11;9.36;79.93
66670;DHT22;53568;52.164;4.472;2023-01-30T01:31:37;9.34;79.94
66670;DHT22;53568;52.164;4.472;2023-01-30T01:34:02;9.26;80.25
66670;DHT22;53568;52.164;4.472;2023-01-30T01:36:28;9.24;80.51
66670;DHT22;53568;52.164;4.472;2023-01-30T01:38:53;9.26;80.53
66670;DHT22;53568;52.164;4.472;2023-01-30T01:41:19;9.22;80.86
66670;DHT22;53568;52.164;4.472;2023-01-30T01:46:35;9.22;80.96
66670;DHT22;53568;52.164;4.472;2023-01-30T01:49:17;9.24;80.94
66670;DHT22;53568;52.164;4.472;2023-01-30T01:51:59;9.23;80.79
66670;DHT22;53568;52.164;4.472;2023-01-30T01:54:51;9.24;80.79
66670;DHT22;53568;52.164;4.472;2023-01-30T01:57:23;9.27;80.47
66670;DHT22;53568;52.164;4.472;2023-01-30T02:00:13;9.30;80.40
66670;DHT22;53568;52.164;4.472;2023-01-30T02:02:51;9.30;80.24
66670;DHT22;53568;52.164;4.472;2023-01-30T02:05:19;9.34;80.05
66670;DHT22;53568;52.164;4.472;2023-01-30T02:07:51;9.31;79.99
66670;DHT22;53568;52.164;4.472;2023-01-30T02:10:26;9.30;80.00
66670;DHT22;53568;52.164;4.472;2023-01-30T02:12:52;9.26;79.93
66670;DHT22;53568;52.164;4.472;2023-01-30T02:15:18;9.36;79.73
66670;DHT22;53568;52.164;4.472;2023-01-30T02:17:44;9.34;79.66
66670;DHT22;53568;52.164;4.472;2023-01-30T02:23:01;9.40;79.48
66670;DHT22;53568;52.164;4.472;2023-01-30T02:29:07;9.38;79.69
66670;DHT22;53568;52.164;4.472;2023-01-30T02:34:40;9.41;79.66
66670;DHT22;53568;52.164;4.472;2023-01-30T02:40:04;9.37;79.92
66670;DHT22;53568;52.164;4.472;2023-01-30T02:43:05;9.36;79.81
66670;DHT22;53568;52.164;4.472;2023-01-30T02:48:29;9.37;80.00
66670;DHT22;53568;52.164;4.472;2023-01-30T02:51:08;9.34;80.05
66670;DHT22;53568;52.164;4.472;2023-01-30T02:53:37;9.34;80.31
66670;DHT22;53568;52.164;4.472;2023-01-30T02:56:03;9.31;80.42
66670;DHT22;53568;52.164;4.472;2023-01-30T02:58:36;9.28;80.54
66670;DHT22;53568;52.164;4.472;2023-01-30T03:07:15;9.44;80.15
66670;DHT22;53568;52.164;4.472;2023-01-30T03:12:48;9.41;80.15
66670;DHT22;53568;52.164;4.472;2023-01-30T03:15:27;9.44;80.17
66670;DHT22;53568;52.164;4.472;2023-01-30T03:17:56;9.43;80.36
66670;DHT22;53568;52.164;4.472;2023-01-30T03:20:21;9.50;80.15
66670;DHT22;53568;52.164;4.472;2023-01-30T03:22:47;9.51;80.06
66670;DHT22;53568;52.164;4.472;2023-01-30T03:25:18;9.54;79.82
66670;DHT22;53568;52.164;4.472;2023-01-30T03:27:44;9.58;79.81
66670;DHT22;53568;52.164;4.472;2023-01-30T03:30:10;9.47;79.90
66670;DHT22;53568;52.164;4.472;2023-01-30T03:32:36;9.41;80.14
66670;DHT22;53568;52.164;4.472;2023-01-30T03:35:01;9.41;80.16
66670;DHT22;53568;52.164;4.472;2023-01-30T03:37:27;9.41;80.41
66670;DHT22;53568;52.164;4.472;2023-01-30T03:39:53;9.47;80.08
66670;DHT22;53568;52.164;4.472;2023-01-30T03:42:18;9.47;80.22
66670;DHT22;53568;52.164;4.472;2023-01-30T03:44:44;9.44;80.40
66670;DHT22;53568;52.164;4.472;2023-01-30T03:47:09;9.50;80.36
66670;DHT22;53568;52.164;4.472;2023-01-30T03:49:35;9.36;80.57
66670;DHT22;53568;52.164;4.472;2023-01-30T03:52:00;9.41;80.45
66670;DHT22;53568;52.164;4.472;2023-01-30T03:54:26;9.24;80.76
66670;DHT22;53568;52.164;4.472;2023-01-30T03:56:52;9.34;80.58
66670;DHT22;53568;52.164;4.472;2023-01-30T03:59:18;9.40;79.96
66670;DHT22;53568;52.164;4.472;2023-01-30T04:01:43;9.34;79.91
66670;DHT22;53568;52.164;4.472;2023-01-30T04:04:09;9.30;79.95
66670;DHT22;53568;52.164;4.472;2023-01-30T04:06:34;9.37;79.53
66670;DHT22;53568;52.164;4.472;2023-01-30T04:09:00;9.33;79.01
66670;DHT22;53568;52.164;4.472;2023-01-30T04:11:25;9.30;79.15
66670;DHT22;53568;52.164;4.472;2023-01-30T04:13:51;9.24;79.25
66670;DHT22;53568;52.164;4.472;2023-01-30T04:16:23;9.22;79.45
66670;DHT22;53568;52.164;4.472;2023-01-30T04:18:49;9.19;79.68
66670;DHT22;53568;52.164;4.472;2023-01-30T04:21:15;9.20;79.85
66670;DHT22;53568;52.164;4.472;2023-01-30T04:23:41;9.07;79.75
66670;DHT22;53568;52.164;4.472;2023-01-30T04:26:08;9.15;79.81
66670;DHT22;53568;52.164;4.472;2023-01-30T04:28:34;9.17;79.82
66670;DHT22;53568;52.164;4.472;2023-01-30T04:31:00;9.30;79.01
66670;DHT22;53568;52.164;4.472;2023-01-30T04:33:25;9.30;78.26
66670;DHT22;53568;52.164;4.472;2023-01-30T04:35:59;9.31;77.84
66670;DHT22;53568;52.164;4.472;2023-01-30T04:38:26;9.38;77.70
66670;DHT22;53568;52.164;4.472;2023-01-30T04:40:54;9.37;77.65
66670;DHT22;53568;52.164;4.472;2023-01-30T04:43:21;9.28;76.42
66670;DHT22;53568;52.164;4.472;2023-01-30T04:45:49;9.22;76.13
66670;DHT22;53568;52.164;4.472;2023-01-30T04:48:15;9.22;75.79
66670;DHT22;53568;52.164;4.472;2023-01-30T04:50:43;9.27;75.38
66670;DHT22;53568;52.164;4.472;2023-01-30T04:53:10;9.23;75.55
66670;DHT22;53568;52.164;4.472;2023-01-30T04:55:36;9.17;75.90
66670;DHT22;53568;52.164;4.472;2023-01-30T04:58:02;9.17;76.12
66670;DHT22;53568;52.164;4.472;2023-01-30T05:00:28;9.15;76.30
66670;DHT22;53568;52.164;4.472;2023-01-30T05:02:54;9.15;76.31
66670;DHT22;53568;52.164;4.472;2023-01-30T05:05:24;9.05;76.55
66670;DHT22;53568;52.164;4.472;2023-01-30T05:07:50;9.03;76.43
66670;DHT22;53568;52.164;4.472;2023-01-30T05:10:16;9.06;76.36
66670;DHT22;53568;52.164;4.472;2023-01-30T05:12:42;9.03;76.00
66670;DHT22;53568;52.164;4.472;2023-01-30T05:15:09;9.06;76.14
66670;DHT22;53568;52.164;4.472;2023-01-30T05:17:35;9.10;75.91
66670;DHT22;53568;52.164;4.472;2023-01-30T05:20:01;9.07;75.99
66670;DHT22;53568;52.164;4.472;2023-01-30T05:22:27;9.03;75.82
66670;DHT22;53568;52.164;4.472;2023-01-30T05:24:52;8.97;75.67
66670;DHT22;53568;52.164;4.472;2023-01-30T05:27:18;8.93;75.13
66670;DHT22;53568;52.164;4.472;2023-01-30T05:29:43;8.90;75.14
66670;DHT22;53568;52.164;4.472;2023-01-30T05:32:17;8.83;74.64
66670;DHT22;53568;52.164;4.472;2023-01-30T05:34:43;8.75;74.98
66670;DHT22;53568;52.164;4.472;2023-01-30T05:37:09;8.82;74.88
66670;DHT22;53568;52.164;4.472;2023-01-30T05:39:34;8.82;74.91
66670;DHT22;53568;52.164;4.472;2023-01-30T05:42:00;8.77;74.69
66670;DHT22;53568;52.164;4.472;2023-01-30T05:44:25;8.73;74.36
66670;DHT22;53568;52.164;4.472;2023-01-30T05:46:51;8.71;73.96
66670;DHT22;53568;52.164;4.472;2023-01-30T05:49:16;8.68;73.89
66670;DHT22;53568;52.164;4.472;2023-01-30T05:51:42;8.56;73.82
66670;DHT22;53568;52.164;4.472;2023-01-30T05:54:07;8.65;73.45
66670;DHT22;53568;52.164;4.472;2023-01-30T05:56:33;8.65;72.46
66670;DHT22;53568;52.164;4.472;2023-01-30T05:59:00;8.63;71.81
66670;DHT22;53568;52.164;4.472;2023-01-30T06:01:27;8.55;72.03
66670;DHT22;53568;52.164;4.472;2023-01-30T06:03:53;8.55;72.16
66670;DHT22;53568;52.164;4.472;2023-01-30T06:06:19;8.62;71.89
66670;DHT22;53568;52.164;4.472;2023-01-30T06:08:45;8.58;71.94
66670;DHT22;53568;52.164;4.472;2023-01-30T06:11:13;8.44;71.93
66670;DHT22;53568;52.164;4.472;2023-01-30T06:13:39;8.39;72.08
66670;DHT22;53568;52.164;4.472;2023-01-30T06:16:08;8.45;71.64
66670;DHT22;53568;52.164;4.472;2023-01-30T06:18:34;8.49;70.99
66670;DHT22;53568;52.164;4.472;2023-01-30T06:21:00;8.45;70.59
66670;DHT22;53568;52.164;4.472;2023-01-30T06:23:27;8.53;70.06
66670;DHT22;53568;52.164;4.472;2023-01-30T06:25:53;8.48;70.14
66670;DHT22;53568;52.164;4.472;2023-01-30T06:28:20;8.53;68.95
66670;DHT22;53568;52.164;4.472;2023-01-30T06:30:47;8.55;68.54
66670;DHT22;53568;52.164;4.472;2023-01-30T06:33:12;8.61;68.03
66670;DHT22;53568;52.164;4.472;2023-01-30T06:35:40;8.51;68.04
66670;DHT22;53568;52.164;4.472;2023-01-30T06:38:07;8.46;68.06
66670;DHT22;53568;52.164;4.472;2023-01-30T06:40:39;8.48;67.62
66670;DHT22;53568;52.164;4.472;2023-01-30T06:43:05;8.38;68.13
66670;DHT22;53568;52.164;4.472;2023-01-30T06:45:31;8.34;68.17
66670;DHT22;53568;52.164;4.472;2023-01-30T06:47:57;8.44;67.97
66670;DHT22;53568;52.164;4.472;2023-01-30T06:50:25;8.38;68.02
66670;DHT22;53568;52.164;4.472;2023-01-30T06:52:52;8.41;67.89
66670;DHT22;53568;52.164;4.472;2023-01-30T06:55:22;8.31;67.90
66670;DHT22;53568;52.164;4.472;2023-01-30T06:57:48;8.41;67.83
66670;DHT22;53568;52.164;4.472;2023-01-30T07:00:19;8.46;67.75
66670;DHT22;53568;52.164;4.472;2023-01-30T07:02:46;8.29;68.24
66670;DHT22;53568;52.164;4.472;2023-01-30T07:05:11;8.39;68.42
66670;DHT22;53568;52.164;4.472;2023-01-30T07:07:38;8.42;68.49
66670;DHT22;53568;52.164;4.472;2023-01-30T07:10:06;8.44;68.31
66670;DHT22;53568;52.164;4.472;2023-01-30T07:12:31;8.46;68.11
66670;DHT22;53568;52.164;4.472;2023-01-30T07:14:57;8.44;68.17
66670;DHT22;53568;52.164;4.472;2023-01-30T07:17:22;8.44;68.15
66670;DHT22;53568;52.164;4.472;2023-01-30T07:19:48;8.42;68.59
66670;DHT22;53568;52.164;4.472;2023-01-30T07:22:15;8.45;68.74
66670;DHT22;53568;52.164;4.472;2023-01-30T07:24:41;8.41;68.92
66670;DHT22;53568;52.164;4.472;2023-01-30T07:27:11;8.39;68.91
66670;DHT22;53568;52.164;4.472;2023-01-30T07:29:39;8.45;68.88
66670;DHT22;53568;52.164;4.472;2023-01-30T07:32:06;8.42;68.65
66670;DHT22;53568;52.164;4.472;2023-01-30T07:34:32;8.42;68.69
66670;DHT22;53568;52.164;4.472;2023-01-30T07:36:57;8.38;68.78
66670;DHT22;53568;52.164;4.472;2023-01-30T07:39:23;8.38;68.96
66670;DHT22;53568;52.164;4.472;2023-01-30T07:41:48;8.42;68.88
66670;DHT22;53568;52.164;4.472;2023-01-30T07:44:14;8.32;68.99
66670;DHT22;53568;52.164;4.472;2023-01-30T07:46:39;8.31;69.11
66670;DHT22;53568;52.164;4.472;2023-01-30T07:49:06;8.37;69.05
66670;DHT22;53568;52.164;4.472;2023-01-30T07:51:33;8.39;69.14
66670;DHT22;53568;52.164;4.472;2023-01-30T07:53:59;8.38;69.43
66670;DHT22;53568;52.164;4.472;2023-01-30T07:56:29;8.45;69.44
66670;DHT22;53568;52.164;4.472;2023-01-30T07:58:55;8.37;69.61
66670;DHT22;53568;52.164;4.472;2023-01-30T08:01:20;8.34;69.75
66670;DHT22;53568;52.164;4.472;2023-01-30T08:03:46;8.41;69.44
66670;DHT22;53568;52.164;4.472;2023-01-30T08:06:14;8.39;69.26
66670;DHT22;53568;52.164;4.472;2023-01-30T08:08:40;8.38;69.15
66670;DHT22;53568;52.164;4.472;2023-01-30T08:11:06;8.41;69.26
66670;DHT22;53568;52.164;4.472;2023-01-30T08:13:32;8.46;69.29
66670;DHT22;53568;52.164;4.472;2023-01-30T08:16:05;8.46;69.23
66670;DHT22;53568;52.164;4.472;2023-01-30T08:18:32;8.34;69.63
66670;DHT22;53568;52.164;4.472;2023-01-30T08:21:00;8.41;69.67
66670;DHT22;53568;52.164;4.472;2023-01-30T08:23:26;8.52;69.17
66670;DHT22;53568;52.164;4.472;2023-01-30T08:25:56;8.52;69.11
66670;DHT22;53568;52.164;4.472;2023-01-30T08:28:22;8.55;69.07
66670;DHT22;53568;52.164;4.472;2023-01-30T08:30:48;8.44;69.09
66670;DHT22;53568;52.164;4.472;2023-01-30T08:33:14;8.58;69.09
66670;DHT22;53568;52.164;4.472;2023-01-30T08:35:40;8.63;68.42
66670;DHT22;53568;52.164;4.472;2023-01-30T08:38:06;8.62;68.02
66670;DHT22;53568;52.164;4.472;2023-01-30T08:40:34;8.59;67.93
66670;DHT22;53568;52.164;4.472;2023-01-30T08:43:00;8.59;67.88
66670;DHT22;53568;52.164;4.472;2023-01-30T08:45:26;8.58;67.59
66670;DHT22;53568;52.164;4.472;2023-01-30T08:47:51;8.55;67.82
66670;DHT22;53568;52.164;4.472;2023-01-30T08:50:17;8.53;68.10
66670;DHT22;53568;52.164;4.472;2023-01-30T08:52:43;8.72;67.79
66670;DHT22;53568;52.164;4.472;2023-01-30T08:55:08;8.56;67.84
66670;DHT22;53568;52.164;4.472;2023-01-30T08:57:34;8.56;68.34
66670;DHT22;53568;52.164;4.472;2023-01-30T09:00:00;8.63;68.46
66670;DHT22;53568;52.164;4.472;2023-01-30T09:02:26;8.66;68.32
66670;DHT22;53568;52.164;4.472;2023-01-30T09:04:51;8.63;68.56
66670;DHT22;53568;52.164;4.472;2023-01-30T09:07:17;8.72;68.18
66670;DHT22;53568;52.164;4.472;2023-01-30T09:09:43;8.56;68.77
66670;DHT22;53568;52.164;4.472;2023-01-30T09:12:08;8.68;68.44
66670;DHT22;53568;52.164;4.472;2023-01-30T09:14:34;8.53;68.49
66670;DHT22;53568;52.164;4.472;2023-01-30T09:16:59;8.59;69.02
66670;DHT22;53568;52.164;4.472;2023-01-30T09:19:26;8.68;69.02
66670;DHT22;53568;52.164;4.472;2023-01-30T09:21:53;8.59;68.87
66670;DHT22;53568;52.164;4.472;2023-01-30T09:24:20;8.61;68.87
66670;DHT22;53568;52.164;4.472;2023-01-30T09:26:54;8.63;69.05
66670;DHT22;53568;52.164;4.472;2023-01-30T09:29:22;8.51;69.49
66670;DHT22;53568;52.164;4.472;2023-01-30T09:31:48;8.52;69.05
66670;DHT22;53568;52.164;4.472;2023-01-30T09:34:14;8.49;69.05
66670;DHT22;53568;52.164;4.472;2023-01-30T09:36:40;8.59;68.93
66670;DHT22;53568;52.164;4.472;2023-01-30T09:39:06;8.61;68.46
66670;DHT22;53568;52.164;4.472;2023-01-30T09:48:30;8.63;68.96
66670;DHT22;53568;52.164;4.472;2023-01-30T09:51:21;8.62;68.86
66670;DHT22;53568;52.164;4.472;2023-01-30T09:56:25;8.68;68.58
66670;DHT22;53568;52.164;4.472;2023-01-30T09:58:54;8.75;68.49
66670;DHT22;53568;52.164;4.472;2023-01-30T10:01:50;8.69;68.34
66670;DHT22;53568;52.164;4.472;2023-01-30T10:04:33;8.71;68.54
66670;DHT22;53568;52.164;4.472;2023-01-30T10:09:44;8.73;68.72
66670;DHT22;53568;52.164;4.472;2023-01-30T10:15:21;8.83;69.12
66670;DHT22;53568;52.164;4.472;2023-01-30T10:23:43;8.80;69.09
66670;DHT22;53568;52.164;4.472;2023-01-30T10:26:18;8.79;69.53
66670;DHT22;53568;52.164;4.472;2023-01-30T10:28:59;8.83;69.43
66670;DHT22;53568;52.164;4.472;2023-01-30T10:31:36;8.80;69.43
66670;DHT22;53568;52.164;4.472;2023-01-30T10:34:24;8.89;69.38
66670;DHT22;53568;52.164;4.472;2023-01-30T10:42:44;8.86;69.43
66670;DHT22;53568;52.164;4.472;2023-01-30T10:45:15;8.80;69.77
66670;DHT22;53568;52.164;4.472;2023-01-30T10:47:54;8.73;70.18
66670;DHT22;53568;52.164;4.472;2023-01-30T11:01:42;8.76;70.39
66670;DHT22;53568;52.164;4.472;2023-01-30T11:04:31;8.75;70.62
66670;DHT22;53568;52.164;4.472;2023-01-30T11:07:00;8.76;70.48
66670;DHT22;53568;52.164;4.472;2023-01-30T11:09:45;8.82;70.46
66670;DHT22;53568;52.164;4.472;2023-01-30T11:12:11;8.76;70.72
66670;DHT22;53568;52.164;4.472;2023-01-30T11:14:56;8.68;70.80
66670;DHT22;53568;52.164;4.472;2023-01-30T11:17:33;8.80;70.80
66670;DHT22;53568;52.164;4.472;2023-01-30T11:20:21;8.89;70.48
66670;DHT22;53568;52.164;4.472;2023-01-30T11:23:03;8.97;69.92
66670;DHT22;53568;52.164;4.472;2023-01-30T11:25:29;9.16;69.11
66670;DHT22;53568;52.164;4.472;2023-01-30T11:28:04;9.02;68.83
66670;DHT22;53568;52.164;4.472;2023-01-30T11:30:35;9.13;68.60
66670;DHT22;53568;52.164;4.472;2023-01-30T11:33:11;9.10;68.62
66670;DHT22;53568;52.164;4.472;2023-01-30T11:35:54;8.95;68.71
66670;DHT22;53568;52.164;4.472;2023-01-30T11:38:26;9.09;68.65
66670;DHT22;53568;52.164;4.472;2023-01-30T11:43:38;9.17;68.40
66670;DHT22;53568;52.164;4.472;2023-01-30T11:46:11;9.16;68.17
66670;DHT22;53568;52.164;4.472;2023-01-30T11:48:54;9.28;68.50
66670;DHT22;53568;52.164;4.472;2023-01-30T11:51:24;9.33;68.67
66670;DHT22;53568;52.164;4.472;2023-01-30T11:53:56;9.40;68.51
66670;DHT22;53568;52.164;4.472;2023-01-30T12:04:36;9.13;68.60
66670;DHT22;53568;52.164;4.472;2023-01-30T12:07:29;8.96;68.87
66670;DHT22;53568;52.164;4.472;2023-01-30T12:09:55;8.90;69.30
66670;DHT22;53568;52.164;4.472;2023-01-30T12:12:32;8.92;69.31
66670;DHT22;53568;52.164;4.472;2023-01-30T12:15:13;8.95;69.57
66670;DHT22;53568;52.164;4.472;2023-01-30T12:17:58;9.07;69.45
66670;DHT22;53568;52.164;4.472;2023-01-30T12:21:08;9.17;69.04
66670;DHT22;53568;52.164;4.472;2023-01-30T12:23:50;9.16;69.20
66670;DHT22;53568;52.164;4.472;2023-01-30T12:28:57;9.23;69.35
66670;DHT22;53568;52.164;4.472;2023-01-30T12:31:36;9.15;69.57
66670;DHT22;53568;52.164;4.472;2023-01-30T12:34:03;9.22;69.52
66670;DHT22;53568;52.164;4.472;2023-01-30T12:36:34;9.15;69.64
66670;DHT22;53568;52.164;4.472;2023-01-30T12:58:15;9.37;68.31
66670;DHT22;53568;52.164;4.472;2023-01-30T13:04:12;9.37;68.80
66670;DHT22;53568;52.164;4.472;2023-01-30T13:14:35;9.54;68.37
66670;DHT22;53568;52.164;4.472;2023-01-30T13:19:56;9.44;68.43
66670;DHT22;53568;52.164;4.472;2023-01-30T13:27:57;9.40;68.75
66670;DHT22;53568;52.164;4.472;2023-01-30T13:30:24;9.46;68.77
66670;DHT22;53568;52.164;4.472;2023-01-30T13:32:57;9.43;68.67
66670;DHT22;53568;52.164;4.472;2023-01-30T13:35:34;9.51;68.33
66670;DHT22;53568;52.164;4.472;2023-01-30T13:38:03;9.41;68.20
66670;DHT22;53568;52.164;4.472;2023-01-30T13:40:39;9.31;68.56
66670;DHT22;53568;52.164;4.472;2023-01-30T13:43:36;9.24;68.89
66670;DHT22;53568;52.164;4.472;2023-01-30T13:46:09;9.38;68.59
66670;DHT22;53568;52.164;4.472;2023-01-30T13:49:01;9.24;69.13
66670;DHT22;53568;52.164;4.472;2023-01-30T13:52:05;9.36;68.71
66670;DHT22;53568;52.164;4.472;2023-01-30T13:55:05;9.31;68.51
66670;DHT22;53568;52.164;4.472;2023-01-30T13:57:45;9.38;68.82
66670;DHT22;53568;52.164;4.472;2023-01-30T14:08:51;9.16;69.19
66670;DHT22;53568;52.164;4.472;2023-01-30T14:11:32;9.27;68.65
66670;DHT22;53568;52.164;4.472;2023-01-30T14:16:54;9.22;68.73
66670;DHT22;53568;52.164;4.472;2023-01-30T14:19:37;9.06;69.12
66670;DHT22;53568;52.164;4.472;2023-01-30T14:22:21;9.03;69.24
66670;DHT22;53568;52.164;4.472;2023-01-30T14:27:44;9.15;68.87
66670;DHT22;53568;52.164;4.472;2023-01-30T14:33:46;9.16;68.98
66670;DHT22;53568;52.164;4.472;2023-01-30T14:38:41;9.10;68.79
66670;DHT22;53568;52.164;4.472;2023-01-30T14:41:35;9.05;69.15
66670;DHT22;53568;52.164;4.472;2023-01-30T14:44:00;9.02;68.65
66670;DHT22;53568;52.164;4.472;2023-01-30T14:49:18;9.15;68.67
66670;DHT22;53568;52.164;4.472;2023-01-30T14:51:46;9.17;68.07
66670;DHT22;53568;52.164;4.472;2023-01-30T15:02:25;9.15;69.04
66670;DHT22;53568;52.164;4.472;2023-01-30T15:08:09;9.17;69.05
66670;DHT22;53568;52.164;4.472;2023-01-30T15:30:16;9.02;69.44
66670;DHT22;53568;52.164;4.472;2023-01-30T15:32:46;8.93;70.05
66670;DHT22;53568;52.164;4.472;2023-01-30T15:37:51;9.02;69.65
66670;DHT22;53568;52.164;4.472;2023-01-30T15:40:24;9.02;69.15
66670;DHT22;53568;52.164;4.472;2023-01-30T15:43:10;8.95;69.33
66670;DHT22;53568;52.164;4.472;2023-01-30T15:51:28;8.89;69.63
66670;DHT22;53568;52.164;4.472;2023-01-30T15:53:57;8.95;69.66
66670;DHT22;53568;52.164;4.472;2023-01-30T15:56:27;8.89;69.82
66670;DHT22;53568;52.164;4.472;2023-01-30T15:58:57;8.85;69.87
66670;DHT22;53568;52.164;4.472;2023-01-30T16:01:23;8.83;69.99
66670;DHT22;53568;52.164;4.472;2023-01-30T16:03:50;8.76;70.11
66670;DHT22;53568;52.164;4.472;2023-01-30T16:06:36;8.80;69.96
66670;DHT22;53568;52.164;4.472;2023-01-30T16:09:10;8.93;68.99
66670;DHT22;53568;52.164;4.472;2023-01-30T16:11:42;8.97;68.92
66670;DHT22;53568;52.164;4.472;2023-01-30T16:14:13;8.93;68.31
66670;DHT22;53568;52.164;4.472;2023-01-30T16:17:00;8.92;68.71
66670;DHT22;53568;52.164;4.472;2023-01-30T16:19:31;8.92;68.97
66670;DHT22;53568;52.164;4.472;2023-01-30T16:22:04;8.82;68.67
66670;DHT22;53568;52.164;4.472;2023-01-30T16:24:35;8.90;68.24
66670;DHT22;53568;52.164;4.472;2023-01-30T16:27:05;8.87;68.13
66670;DHT22;53568;52.164;4.472;2023-01-30T16:29:41;8.87;67.66
66670;DHT22;53568;52.164;4.472;2023-01-30T16:32:13;8.76;67.30
66670;DHT22;53568;52.164;4.472;2023-01-30T16:34:39;8.87;67.17
66670;DHT22;53568;52.164;4.472;2023-01-30T16:37:23;8.85;66.60
66670;DHT22;53568;52.164;4.472;2023-01-30T16:40:15;8.89;66.80
66670;DHT22;53568;52.164;4.472;2023-01-30T16:43:21;8.89;67.05
66670;DHT22;53568;52.164;4.472;2023-01-30T16:51:02;9.02;68.33
66670;DHT22;53568;52.164;4.472;2023-01-30T16:53:31;9.09;68.94
66670;DHT22;53568;52.164;4.472;2023-01-30T16:56:13;8.93;70.31
66670;DHT22;53568;52.164;4.472;2023-01-30T16:58:39;8.95;70.78
66670;DHT22;53568;52.164;4.472;2023-01-30T17:01:08;8.95;71.03
66670;DHT22;53568;52.164;4.472;2023-01-30T17:03:38;9.02;70.41
66670;DHT22;53568;52.164;4.472;2023-01-30T17:06:30;8.93;70.39
66670;DHT22;53568;52.164;4.472;2023-01-30T17:08:57;8.90;70.56
66670;DHT22;53568;52.164;4.472;2023-01-30T17:11:33;8.87;70.48
66670;DHT22;53568;52.164;4.472;2023-01-30T17:14:22;8.73;71.21
66670;DHT22;53568;52.164;4.472;2023-01-30T17:17:02;8.77;71.32
66670;DHT22;53568;52.164;4.472;2023-01-30T17:19:28;8.86;70.85
66670;DHT22;53568;52.164;4.472;2023-01-30T17:21:55;8.80;71.03
66670;DHT22;53568;52.164;4.472;2023-01-30T17:24:23;8.73;70.89
66670;DHT22;53568;52.164;4.472;2023-01-30T17:26:53;8.72;70.45
66670;DHT22;53568;52.164;4.472;2023-01-30T17:29:24;8.62;70.70
66670;DHT22;53568;52.164;4.472;2023-01-30T17:31:51;8.72;70.48
66670;DHT22;53568;52.164;4.472;2023-01-30T17:34:17;8.69;70.52
66670;DHT22;53568;52.164;4.472;2023-01-30T17:36:45;8.80;70.26
66670;DHT22;53568;52.164;4.472;2023-01-30T17:39:14;8.69;70.30
66670;DHT22;53568;52.164;4.472;2023-01-30T17:41:41;8.62;70.66
66670;DHT22;53568;52.164;4.472;2023-01-30T17:44:08;8.71;70.49
66670;DHT22;53568;52.164;4.472;2023-01-30T17:46:45;8.63;70.73
66670;DHT22;53568;52.164;4.472;2023-01-30T17:49:23;8.62;70.60
66670;DHT22;53568;52.164;4.472;2023-01-30T17:51:51;8.65;70.45
66670;DHT22;53568;52.164;4.472;2023-01-30T17:54:17;8.63;70.19
66670;DHT22;53568;52.164;4.472;2023-01-30T17:56:47;8.65;70.17
66670;DHT22;53568;52.164;4.472;2023-01-30T17:59:17;8.68;70.09
66670;DHT22;53568;52.164;4.472;2023-01-30T18:01:46;8.62;70.20
66670;DHT22;53568;52.164;4.472;2023-01-30T18:04:12;8.72;69.94
66670;DHT22;53568;52.164;4.472;2023-01-30T18:06:41;8.69;70.00
66670;DHT22;53568;52.164;4.472;2023-01-30T18:09:14;8.66;70.08
66670;DHT22;53568;52.164;4.472;2023-01-30T18:11:39;8.77;69.85
66670;DHT22;53568;52.164;4.472;2023-01-30T18:14:05;8.80;69.77
66670;DHT22;53568;52.164;4.472;2023-01-30T18:16:30;8.90;69.60
66670;DHT22;53568;52.164;4.472;2023-01-30T18:18:58;8.79;69.94
66670;DHT22;53568;52.164;4.472;2023-01-30T18:21:24;8.73;69.84
66670;DHT22;53568;52.164;4.472;2023-01-30T18:23:50;8.77;69.69
66670;DHT22;53568;52.164;4.472;2023-01-30T18:26:17;8.62;70.20
66670;DHT22;53568;52.164;4.472;2023-01-30T18:28:43;8.72;69.84
66670;DHT22;53568;52.164;4.472;2023-01-30T18:31:10;8.61;70.20
66670;DHT22;53568;52.164;4.472;2023-01-30T18:33:37;8.56;69.58
66670;DHT22;53568;52.164;4.472;2023-01-30T18:36:06;8.58;68.88
66670;DHT22;53568;52.164;4.472;2023-01-30T18:38:33;8.59;68.25
66670;DHT22;53568;52.164;4.472;2023-01-30T18:41:07;8.59;67.54
66670;DHT22;53568;52.164;4.472;2023-01-30T18:43:34;8.61;67.18
66670;DHT22;53568;52.164;4.472;2023-01-30T18:46:09;8.65;66.51
66670;DHT22;53568;52.164;4.472;2023-01-30T18:48:35;8.73;66.20
66670;DHT22;53568;52.164;4.472;2023-01-30T18:51:13;8.66;66.33
66670;DHT22;53568;52.164;4.472;2023-01-30T18:53:41;8.71;66.40
66670;DHT22;53568;52.164;4.472;2023-01-30T18:56:12;8.65;66.85
66670;DHT22;53568;52.164;4.472;2023-01-30T18:58:38;8.69;66.94
66670;DHT22;53568;52.164;4.472;2023-01-30T19:01:09;8.69;66.70
66670;DHT22;53568;52.164;4.472;2023-01-30T19:03:35;8.72;66.69
66670;DHT22;53568;52.164;4.472;2023-01-30T19:06:00;8.71;66.86
66670;DHT22;53568;52.164;4.472;2023-01-30T19:08:26;8.69;67.22